createdAt,value
2022-10-06T00:04:47.939Z,74
2022-10-06T00:14:55.649Z,74
2022-10-06T00:25:03.315Z,74
2022-10-06T00:35:10.810Z,73
2022-10-06T00:45:18.398Z,73
2022-10-06T00:55:25.925Z,73
2022-10-06T01:05:33.530Z,73
2022-10-06T01:15:41.144Z,73
2022-10-06T01:25:48.600Z,73
2022-10-06T01:35:56.065Z,73
2022-10-06T01:46:04.065Z,73
2022-10-06T01:56:12.386Z,74
2022-10-06T02:06:21.073Z,73
2022-10-06T02:16:29.202Z,74
2022-10-06T02:26:36.808Z,74
2022-10-06T02:36:44.381Z,73
2022-10-06T02:46:51.958Z,73
2022-10-06T02:56:59.849Z,73
2022-10-06T03:07:07.270Z,73
2022-10-06T03:17:14.834Z,74
2022-10-06T03:27:22.466Z,75
2022-10-06T03:37:30.023Z,76
2022-10-06T03:47:37.596Z,75
2022-10-06T03:57:45.038Z,76
2022-10-06T04:07:52.497Z,75
2022-10-06T04:18:00.210Z,75
2022-10-06T04:28:07.756Z,75
2022-10-06T04:38:15.358Z,75
2022-10-06T04:48:26.665Z,76
2022-10-06T04:58:27.021Z,76
2022-10-06T05:08:34.467Z,76
2022-10-06T05:18:43.270Z,76
2022-10-06T05:28:51.971Z,76
2022-10-06T05:38:59.498Z,76
2022-10-06T05:49:07.172Z,76
2022-10-06T05:59:14.736Z,76
2022-10-06T06:09:22.410Z,75
2022-10-06T06:19:29.621Z,75
2022-10-06T06:29:37.149Z,74
2022-10-06T06:39:44.786Z,74
2022-10-06T06:49:52.442Z,74
2022-10-06T07:00:00.250Z,74
2022-10-06T07:10:08.024Z,74
2022-10-06T07:20:15.946Z,73
2022-10-06T07:30:24.689Z,72
2022-10-06T07:40:31.709Z,71
2022-10-06T07:50:39.102Z,70
2022-10-06T08:00:46.674Z,69
2022-10-06T08:10:54.262Z,68
2022-10-06T08:21:01.040Z,67
2022-10-06T08:31:08.587Z,66
2022-10-06T08:41:17.536Z,65
2022-10-06T08:51:25.067Z,61
2022-10-06T09:01:32.782Z,57
2022-10-06T09:11:40.300Z,57
2022-10-06T09:21:48.037Z,57
2022-10-06T09:31:55.644Z,58
2022-10-06T09:42:04.063Z,58
2022-10-06T09:52:11.662Z,57
2022-10-06T10:02:19.418Z,59
2022-10-06T10:12:27.067Z,59
2022-10-06T10:22:34.715Z,60
2022-10-06T10:32:42.388Z,59
2022-10-06T10:42:49.991Z,57
2022-10-06T10:52:58.647Z,56
2022-10-06T11:13:08.553Z,56
2022-10-06T11:23:09.624Z,57
2022-10-06T11:33:17.623Z,58
2022-10-06T11:43:25.440Z,58
2022-10-06T11:53:32.993Z,57
2022-10-06T12:03:41.575Z,57
2022-10-06T12:15:31.719Z,57
2022-10-06T12:23:54.044Z,56
2022-10-06T12:34:01.709Z,55
2022-10-06T12:44:09.271Z,55
2022-10-06T13:04:23.442Z,55
2022-10-06T13:14:23.406Z,54
2022-10-06T13:24:35.813Z,55
2022-10-06T13:34:35.927Z,52
2022-10-06T13:44:49.657Z,53
2022-10-06T13:54:49.930Z,51
2022-10-06T14:04:57.295Z,52
2022-10-06T14:15:05.841Z,53
2022-10-06T14:25:14.853Z,52
2022-10-06T14:35:22.429Z,51
2022-10-06T14:45:29.928Z,52
2022-10-06T14:55:37.620Z,55
2022-10-06T15:05:45.335Z,56
2022-10-06T15:15:53.026Z,56
2022-10-06T15:26:01.603Z,55
2022-10-06T15:36:11.222Z,52
2022-10-06T15:46:19.208Z,51
2022-10-06T15:56:27.145Z,51
2022-10-06T16:06:34.820Z,51
2022-10-06T16:16:43.590Z,52
2022-10-06T16:26:50.049Z,54
2022-10-06T16:36:57.701Z,56
2022-10-06T16:47:06.393Z,56
2022-10-06T16:57:14.277Z,58
2022-10-06T17:07:21.838Z,56
2022-10-06T17:17:22.835Z,56
2022-10-06T17:27:32.775Z,55
2022-10-06T17:37:39.447Z,56
2022-10-06T17:47:49.120Z,58
2022-10-06T17:57:47.817Z,59
2022-10-06T18:07:56.637Z,60
2022-10-06T18:17:58.923Z,61
2022-10-06T18:28:00.076Z,61
2022-10-06T18:38:04.017Z,61
2022-10-06T18:48:05.089Z,61
2022-10-06T18:58:13.158Z,62
2022-10-06T19:08:22.468Z,61
2022-10-06T19:18:21.589Z,60
2022-10-06T19:28:29.252Z,60
2022-10-06T19:38:36.705Z,59
2022-10-06T19:48:44.384Z,59
2022-10-06T19:58:52.595Z,58
2022-10-06T20:09:00.706Z,57
2022-10-06T20:19:08.426Z,57
2022-10-06T20:29:17.349Z,57
2022-10-06T20:39:25.262Z,56
2022-10-06T20:49:32.737Z,59
2022-10-06T20:59:40.512Z,60
2022-10-06T21:09:52.126Z,60
2022-10-06T21:19:56.991Z,60
2022-10-06T21:30:05.035Z,61
2022-10-06T21:40:12.992Z,61
2022-10-06T21:50:20.889Z,61
2022-10-06T22:00:29.878Z,62
2022-10-06T22:10:37.790Z,62
2022-10-06T22:20:45.654Z,61
2022-10-06T22:30:53.715Z,61
2022-10-06T22:41:01.590Z,61
2022-10-06T22:51:09.495Z,62
2022-10-06T23:01:17.391Z,61
2022-10-06T23:11:25.185Z,61
2022-10-06T23:21:32.966Z,62
2022-10-06T23:31:40.821Z,62
2022-10-06T23:41:48.620Z,62
2022-10-06T23:51:56.536Z,63
